Pontypridd, United Kingdom
Current Conditions -  °F | °C
As of 4:20 PM on Saturday 22 Nov 2014 (Local Time) from EGFF Reporting Station
Scattered Clouds Scattered Clouds  
Wind Chill: 54°   Ceiling: Unl
Heat Index: 54°   Visibility: 6mi
Dew Point: 52°   Wind: 5mph
Humidity: 94%   Direction: 260°W
Pressure: 29.91"   Gusts: NA
Location:  51.6°N, 3.35°W
Report Text: EGFF 221620Z 26004KT 9999 SCT018 SCT032 12/11 Q1013
Loading
Personal Weather Stations






























Interactive Weather Map New forecast layout! Learn more

10-Day Weather Forecast

Advertisements
Track Severe Weather on mobile